^^
Station Historical Data
Daily Summary for April 10, 2017 Units:  English    Metric   Both
« Previous Day
Next Day »
Daily Weekly Monthly Yearly Custom
  High: Low: Average:
Temperature: 76.0 °F 48.0 °F 62.5 °F
Dew Point: 48.2 °F 33.2 °F 41.4 °F
Humidity: 64% 33% 47%
Wind Speed: 8.0mph 0.0mph 2.7mph
Wind Gust: 20.0mph - -
Wind- - SSW
Pressure: 30.23 in 30.08 in -
Precipitation: 0.00 in    
Historical Graphs
 
 
Tabular Data for April 10, 2017
Time Temperature Dew Point Pressure Wind Wind Speed Wind Gust Humidity Rainfall Rate (Hourly) Conditions
00:00 49.9 °F 38.2 °F 30.18 in South 1.0 mph 4.0 mph 64% 0.00 in CLR
00:15 51.2 °F 36.9 °F 30.18 in South 2.0 mph 6.0 mph 58% 0.00 in CLR
00:30 52.4 °F 35.7 °F 30.19 in SSE 2.0 mph 7.0 mph 53% 0.00 in CLR
00:45 52.6 °F 35.0 °F 30.19 in South 2.0 mph 6.0 mph 51% 0.00 in CLR
01:00 52.7 °F 34.6 °F 30.19 in South 1.0 mph 6.0 mph 50% 0.00 in CLR
02:15 51.8 °F 33.7 °F 30.19 in SSE 2.0 mph 8.0 mph 50% 0.00 in CLR
02:30 51.8 °F 33.2 °F 30.19 in SSW 1.0 mph 5.0 mph 49% 0.00 in CLR
02:45 51.9 °F 33.3 °F 30.19 in SSW 1.0 mph 6.0 mph 49% 0.00 in CLR
03:00 51.8 °F 33.7 °F 30.19 in South 1.0 mph 6.0 mph 50% 0.00 in CLR
03:15 51.4 °F 33.4 °F 30.19 in SSW 1.0 mph 5.0 mph 50% 0.00 in CLR
03:30 50.5 °F 33.5 °F 30.19 in Calm   2.0 mph 52% 0.00 in CLR
03:45 50.2 °F 33.2 °F 30.19 in Calm   3.0 mph 52% 0.00 in CLR
04:00 49.6 °F 33.6 °F 30.19 in Calm   1.0 mph 54% 0.00 in CLR
04:15 48.8 °F 33.8 °F 30.19 in Calm   2.0 mph 56% 0.00 in CLR
04:30 48.5 °F 33.9 °F 30.20 in Calm     57% 0.00 in CLR
04:45 48.3 °F 34.6 °F 30.20 in Calm   2.0 mph 59% 0.00 in CLR
05:00 48.2 °F 34.5 °F 30.20 in Calm   2.0 mph 59% 0.00 in CLR
05:15 48.5 °F 34.8 °F 30.20 in Calm   3.0 mph 59% 0.00 in CLR
05:30 48.7 °F 34.6 °F 30.20 in Calm   3.0 mph 58% 0.00 in CLR
05:45 48.2 °F 35.0 °F 30.21 in South 1.0 mph 3.0 mph 60% 0.00 in CLR
06:00 48.1 °F 35.3 °F 30.21 in Calm   3.0 mph 61% 0.00 in CLR
06:15 48.0 °F 35.2 °F 30.22 in Calm   3.0 mph 61% 0.00 in CLR
06:30 48.1 °F 35.7 °F 30.22 in Calm   2.0 mph 62% 0.00 in CLR
06:45 48.2 °F 35.8 °F 30.22 in SSW 1.0 mph 3.0 mph 62% 0.00 in CLR
07:00 49.1 °F 36.6 °F 30.22 in SSE 1.0 mph 4.0 mph 62% 0.00 in CLR
07:15 49.7 °F 36.8 °F 30.23 in Calm   3.0 mph 61% 0.00 in CLR
07:30 50.1 °F 37.2 °F 30.23 in SSW 1.0 mph 3.0 mph 61% 0.00 in CLR
07:45 50.8 °F 37.4 °F 30.23 in South 2.0 mph 4.0 mph 60% 0.00 in CLR
08:00 51.8 °F 37.5 °F 30.23 in SSW 2.0 mph 5.0 mph 58% 0.00 in CLR
08:15 52.7 °F 37.9 °F 30.22 in SSW 2.0 mph 5.0 mph 57% 0.00 in CLR
08:30 54.4 °F 38.1 °F 30.22 in South 1.0 mph 5.0 mph 54% 0.00 in CLR
08:45 56.0 °F 39.1 °F 30.22 in SW 1.0 mph 6.0 mph 53% 0.00 in CLR
09:00 57.8 °F 38.2 °F 30.22 in South 3.0 mph 7.0 mph 48% 0.00 in CLR
09:15 58.9 °F 39.3 °F 30.21 in SSW 2.0 mph 8.0 mph 48% 0.00 in CLR
09:30 59.9 °F 38.5 °F 30.21 in SSW 5.0 mph 7.0 mph 45% 0.00 in CLR
09:45 61.1 °F 39.1 °F 30.21 in SW 3.0 mph 7.0 mph 44% 0.00 in CLR
10:00 62.2 °F 38.8 °F 30.21 in SW 3.0 mph 8.0 mph 42% 0.00 in CLR
10:15 63.5 °F 38.7 °F 30.21 in SW 5.0 mph 8.0 mph 40% 0.00 in CLR
10:30 64.5 °F 38.3 °F 30.20 in SSW 5.0 mph 10.0 mph 38% 0.00 in CLR
10:45 65.2 °F 39.0 °F 30.20 in South 3.0 mph 12.0 mph 38% 0.00 in CLR
11:00 66.2 °F 39.1 °F 30.20 in SW 2.0 mph 7.0 mph 37% 0.00 in CLR
11:15 67.2 °F 40.1 °F 30.19 in SW 2.0 mph 9.0 mph 37% 0.00 in CLR
11:30 68.1 °F 38.6 °F 30.19 in SSW 7.0 mph 12.0 mph 34% 0.00 in CLR
11:45 69.0 °F 38.7 °F 30.18 in SW 6.0 mph 13.0 mph 33% 0.00 in CLR
12:00 69.8 °F 40.1 °F 30.18 in SW 6.0 mph 13.0 mph 34% 0.00 in CLR
12:15 69.4 °F 40.5 °F 30.18 in SSW 5.0 mph 12.0 mph 35% 0.00 in CLR
12:30 70.1 °F 41.2 °F 30.17 in SSW 5.0 mph 10.0 mph 35% 0.00 in CLR
12:45 70.6 °F 40.9 °F 30.16 in SSW 6.0 mph 15.0 mph 34% 0.00 in CLR
13:00 70.9 °F 41.9 °F 30.16 in South 8.0 mph 13.0 mph 35% 0.00 in CLR
13:15 71.9 °F 42.0 °F 30.15 in SSW 8.0 mph 15.0 mph 34% 0.00 in CLR
13:30 72.5 °F 42.5 °F 30.14 in SSW 8.0 mph 14.0 mph 34% 0.00 in CLR
13:45 73.8 °F 43.7 °F 30.14 in SSW 5.0 mph 17.0 mph 34% 0.00 in CLR
14:00 74.0 °F 43.8 °F 30.13 in SSW 7.0 mph 17.0 mph 34% 0.00 in CLR
14:15 74.6 °F 44.3 °F 30.13 in SW 5.0 mph 13.0 mph 34% 0.00 in CLR
14:30 75.4 °F 45.1 °F 30.12 in SSW 6.0 mph 20.0 mph 34% 0.00 in CLR
14:45 75.5 °F 45.2 °F 30.12 in South 2.0 mph 12.0 mph 34% 0.00 in CLR
15:00 75.6 °F 46.0 °F 30.11 in South 3.0 mph 14.0 mph 35% 0.00 in CLR
15:15 75.3 °F 45.0 °F 30.11 in SSW 6.0 mph 13.0 mph 34% 0.00 in CLR
15:30 75.6 °F 46.0 °F 30.10 in South 6.0 mph 13.0 mph 35% 0.00 in CLR
15:45 75.4 °F 47.3 °F 30.10 in SSE 2.0 mph 14.0 mph 37% 0.00 in CLR
16:00 75.1 °F 47.1 °F 30.10 in South 5.0 mph 14.0 mph 37% 0.00 in CLR
16:15 76.0 °F 47.8 °F 30.10 in SW 2.0 mph 9.0 mph 37% 0.00 in CLR
16:30 74.8 °F 47.5 °F 30.09 in SSE 3.0 mph 9.0 mph 38% 0.00 in CLR
16:45 74.9 °F 47.6 °F 30.09 in SSW 3.0 mph 10.0 mph 38% 0.00 in CLR
17:00 74.5 °F 47.2 °F 30.09 in SW 3.0 mph 7.0 mph 38% 0.00 in CLR
17:15 74.1 °F 46.9 °F 30.08 in SSE 1.0 mph 9.0 mph 38% 0.00 in CLR
17:30 75.0 °F 47.0 °F 30.08 in SSW 5.0 mph 9.0 mph 37% 0.00 in CLR
17:45 74.8 °F 47.5 °F 30.08 in South 2.0 mph 10.0 mph 38% 0.00 in CLR
18:00 73.1 °F 46.7 °F 30.08 in SSE 3.0 mph 9.0 mph 39% 0.00 in CLR
18:15 71.7 °F 47.3 °F 30.08 in SSW 1.0 mph 6.0 mph 42% 0.00 in CLR
18:30 70.5 °F 47.5 °F 30.08 in SSW 2.0 mph 7.0 mph 44% 0.00 in CLR
18:45 69.2 °F 47.0 °F 30.08 in SSE 3.0 mph 8.0 mph 45% 0.00 in CLR
19:00 68.3 °F 47.2 °F 30.08 in South 1.0 mph 6.0 mph 47% 0.00 in CLR
19:15 67.4 °F 47.6 °F 30.08 in SSW 1.0 mph 6.0 mph 49% 0.00 in CLR
19:30 66.4 °F 47.2 °F 30.08 in South 1.0 mph 6.0 mph 50% 0.00 in CLR
19:45 65.2 °F 47.7 °F 30.09 in SSW 1.0 mph 5.0 mph 53% 0.00 in CLR
20:00 64.8 °F 47.3 °F 30.09 in South 1.0 mph 6.0 mph 53% 0.00 in CLR
20:15 64.7 °F 47.2 °F 30.10 in SSW 1.0 mph 8.0 mph 53% 0.00 in FEW
20:30 64.7 °F 47.7 °F 30.11 in South 3.0 mph 6.0 mph 54% 0.00 in FEW
20:45 64.8 °F 47.8 °F 30.11 in SSE 3.0 mph 7.0 mph 54% 0.00 in FEW
21:00 65.2 °F 48.1 °F 30.12 in SSE 2.0 mph 6.0 mph 54% 0.00 in FEW
21:15 66.2 °F 48.0 °F 30.12 in SSE 3.0 mph 9.0 mph 52% 0.00 in CLR
21:30 66.8 °F 48.1 °F 30.13 in SSW 3.0 mph 9.0 mph 51% 0.00 in CLR
21:45 66.9 °F 48.2 °F 30.13 in SSW 5.0 mph 12.0 mph 51% 0.00 in CLR
22:00 66.7 °F 48.0 °F 30.13 in SSE 5.0 mph 13.0 mph 51% 0.00 in CLR
22:30 65.6 °F 48.0 °F 30.13 in South 1.0 mph 9.0 mph 53% 0.00 in CLR
22:45 65.8 °F 47.7 °F 30.13 in South 2.0 mph 9.0 mph 52% 0.00 in CLR
23:00 66.7 °F 47.5 °F 30.13 in SSW 6.0 mph 12.0 mph 50% 0.00 in CLR
23:15 67.2 °F 47.4 °F 30.13 in SSW 6.0 mph 14.0 mph 49% 0.00 in CLR
23:30 67.2 °F 47.4 °F 30.13 in South 5.0 mph 17.0 mph 49% 0.00 in CLR
23:45 67.4 °F 47.1 °F 30.14 in SSW 5.0 mph 17.0 mph 48% 0.00 in CLR
TarryTown NY Weather
Compliments of Weather Underground - 1.5 mb